createdAt,value
2019-05-21T00:00:09.621Z,20.76
2019-05-21T00:02:36.473Z,20.75
2019-05-21T00:05:03.324Z,20.76
2019-05-21T00:07:30.139Z,20.77
2019-05-21T00:09:57.039Z,20.77
2019-05-21T00:12:24.263Z,20.75
2019-05-21T00:14:51.188Z,20.77
2019-05-21T00:17:18.070Z,20.76
2019-05-21T00:19:44.985Z,20.76
2019-05-21T00:22:11.887Z,20.77
2019-05-21T00:24:38.891Z,20.77
2019-05-21T00:27:05.757Z,20.77
2019-05-21T00:29:32.646Z,20.77
2019-05-21T00:31:59.474Z,20.77
2019-05-21T00:34:26.384Z,20.77
2019-05-21T00:36:55.175Z,20.77
2019-05-21T00:39:22.177Z,20.77
2019-05-21T00:41:49.058Z,20.77
2019-05-21T00:44:15.916Z,20.77
2019-05-21T00:46:42.843Z,20.77
2019-05-21T00:49:09.649Z,20.77
2019-05-21T00:51:36.496Z,20.77
2019-05-21T00:54:03.308Z,20.77
2019-05-21T00:56:30.178Z,20.77
2019-05-21T00:58:56.996Z,20.77
2019-05-21T01:01:23.928Z,20.77
2019-05-21T01:03:50.775Z,20.77
2019-05-21T01:06:17.568Z,20.78
2019-05-21T01:08:44.354Z,20.79
2019-05-21T01:11:11.156Z,20.78
2019-05-21T01:13:37.918Z,20.76
2019-05-21T01:16:04.711Z,20.75
2019-05-21T01:18:31.502Z,20.74
2019-05-21T01:20:58.282Z,20.73
2019-05-21T01:23:25.048Z,20.73
2019-05-21T01:25:51.829Z,20.73
2019-05-21T01:28:18.620Z,20.73
2019-05-21T01:30:45.403Z,20.73
2019-05-21T01:33:12.168Z,20.73
2019-05-21T01:35:38.968Z,20.72
2019-05-21T01:38:05.744Z,20.72
2019-05-21T01:40:32.512Z,20.72
2019-05-21T01:42:59.305Z,20.72
2019-05-21T01:45:26.097Z,20.72
2019-05-21T01:47:52.915Z,20.72
2019-05-21T01:50:19.712Z,20.71
2019-05-21T01:52:46.482Z,20.72
2019-05-21T01:55:13.270Z,20.71
2019-05-21T01:57:40.041Z,20.71
2019-05-21T02:00:06.883Z,20.72
2019-05-21T02:02:33.662Z,20.71
2019-05-21T02:05:00.467Z,20.71
2019-05-21T02:07:27.228Z,20.71
2019-05-21T02:10:00.035Z,20.71
2019-05-21T02:12:26.797Z,20.70
2019-05-21T02:14:53.592Z,20.71
2019-05-21T02:17:20.357Z,20.71
2019-05-21T02:19:47.146Z,20.70
2019-05-21T02:22:13.930Z,20.71
2019-05-21T02:24:40.726Z,20.70
2019-05-21T02:27:07.541Z,20.70
2019-05-21T02:29:34.380Z,20.70
2019-05-21T02:32:01.159Z,20.69
2019-05-21T02:34:28.287Z,20.70
2019-05-21T02:36:55.082Z,20.69
2019-05-21T02:39:21.858Z,20.70
2019-05-21T02:41:48.649Z,20.70
2019-05-21T02:44:15.432Z,20.69
2019-05-21T02:46:42.235Z,20.70
2019-05-21T02:49:09.000Z,20.69
2019-05-21T02:51:35.831Z,20.69
2019-05-21T02:54:02.663Z,20.69
2019-05-21T02:56:29.511Z,20.69
2019-05-21T02:58:56.286Z,20.69
2019-05-21T03:01:33.965Z,20.68
2019-05-21T03:04:00.775Z,20.69
2019-05-21T03:06:27.541Z,20.69
2019-05-21T03:08:54.337Z,20.69
2019-05-21T03:11:21.121Z,20.69
2019-05-21T03:13:47.984Z,20.69
2019-05-21T03:16:14.791Z,20.69
2019-05-21T03:18:41.607Z,20.68
2019-05-21T03:21:08.367Z,20.69
2019-05-21T03:23:35.151Z,20.68
2019-05-21T03:26:02.031Z,20.67
2019-05-21T03:28:28.875Z,20.68
2019-05-21T03:30:55.750Z,20.64
2019-05-21T03:33:22.592Z,20.63
2019-05-21T03:35:49.626Z,20.63
2019-05-21T03:38:16.523Z,20.61
2019-05-21T03:40:43.309Z,20.64
2019-05-21T03:43:10.090Z,20.62
2019-05-21T03:45:36.883Z,20.64
2019-05-21T03:48:03.681Z,20.63
2019-05-21T03:50:30.550Z,20.63
2019-05-21T03:52:57.330Z,20.61
2019-05-21T03:55:24.218Z,20.62
2019-05-21T03:57:51.031Z,20.28
2019-05-21T04:00:17.796Z,20.61
2019-05-21T04:02:44.584Z,20.61
2019-05-21T04:05:11.565Z,20.63
2019-05-21T04:07:38.622Z,20.67
2019-05-21T04:10:05.554Z,20.69
2019-05-21T04:12:32.472Z,20.70
2019-05-21T04:15:01.053Z,20.71
2019-05-21T04:17:46.100Z,20.69
2019-05-21T04:20:12.991Z,20.70
2019-05-21T04:22:41.433Z,20.71
2019-05-21T04:25:08.284Z,20.71
2019-05-21T04:27:35.090Z,20.70
2019-05-21T04:30:01.954Z,20.71
2019-05-21T04:32:29.241Z,20.71
2019-05-21T04:34:56.088Z,20.71
2019-05-21T04:37:22.917Z,20.71
2019-05-21T04:39:50.268Z,20.71
2019-05-21T04:42:17.165Z,20.71
2019-05-21T04:44:44.057Z,20.71
2019-05-21T04:47:10.914Z,20.71
2019-05-21T04:49:37.839Z,20.72
2019-05-21T04:52:04.661Z,20.71
2019-05-21T04:54:31.661Z,20.72
2019-05-21T04:56:58.547Z,20.71
2019-05-21T04:59:25.457Z,20.71
2019-05-21T05:01:52.343Z,20.71
2019-05-21T05:04:21.865Z,20.72
2019-05-21T05:06:47.759Z,20.72
2019-05-21T05:09:14.696Z,20.72
2019-05-21T05:11:41.530Z,20.72
2019-05-21T05:14:08.331Z,20.72
2019-05-21T05:16:35.149Z,20.72
2019-05-21T05:19:01.946Z,20.73
2019-05-21T05:21:28.809Z,20.73
2019-05-21T05:23:55.702Z,20.72
2019-05-21T05:26:22.530Z,20.72
2019-05-21T05:28:49.453Z,20.72
2019-05-21T05:31:16.421Z,20.73
2019-05-21T05:33:43.320Z,20.73
2019-05-21T05:36:10.161Z,20.72
2019-05-21T05:38:37.153Z,20.73
2019-05-21T05:41:03.946Z,20.74
2019-05-21T05:43:30.826Z,20.73
2019-05-21T05:45:57.720Z,20.72
2019-05-21T05:48:25.251Z,20.73
2019-05-21T05:50:53.847Z,20.73
2019-05-21T05:53:21.702Z,20.73
2019-05-21T05:55:48.628Z,20.73
2019-05-21T05:58:15.552Z,20.76
2019-05-21T06:00:42.429Z,20.74
2019-05-21T06:03:09.245Z,20.73
2019-05-21T06:05:36.082Z,20.72
2019-05-21T06:08:03.106Z,19.95
2019-05-21T06:10:30.065Z,19.55
2019-05-21T06:12:56.971Z,19.31
2019-05-21T06:15:23.901Z,19.19
2019-05-21T06:17:50.943Z,19.15
2019-05-21T06:20:17.886Z,19.14
2019-05-21T06:22:44.812Z,19.08
2019-05-21T06:25:11.832Z,19.06
2019-05-21T06:27:38.724Z,18.89
2019-05-21T06:30:05.517Z,18.79
2019-05-21T06:32:32.335Z,18.77
2019-05-21T06:34:59.176Z,18.71
2019-05-21T06:37:25.964Z,18.71
2019-05-21T06:39:52.774Z,19.30
2019-05-21T06:42:19.564Z,19.79
2019-05-21T06:44:46.446Z,20.04
2019-05-21T06:47:13.263Z,20.15
2019-05-21T06:49:40.082Z,20.21
2019-05-21T06:52:06.920Z,20.25
2019-05-21T06:54:33.730Z,20.28
2019-05-21T06:57:00.594Z,20.31
2019-05-21T06:59:27.370Z,20.33
2019-05-21T07:01:54.189Z,20.35
2019-05-21T07:04:21.044Z,20.36
2019-05-21T07:06:47.862Z,20.36
2019-05-21T07:09:14.696Z,20.38
2019-05-21T07:11:41.533Z,20.37
2019-05-21T07:14:08.389Z,20.37
2019-05-21T07:16:35.198Z,20.38
2019-05-21T07:19:02.015Z,20.38
2019-05-21T07:21:28.920Z,20.38
2019-05-21T07:23:55.796Z,20.38
2019-05-21T07:26:22.681Z,20.39
2019-05-21T07:28:49.463Z,20.39
2019-05-21T07:31:17.602Z,20.40
2019-05-21T07:33:44.645Z,20.38
2019-05-21T07:36:11.471Z,20.39
2019-05-21T07:38:52.759Z,20.39
2019-05-21T07:41:06.845Z,20.40
2019-05-21T07:43:33.670Z,20.40
2019-05-21T07:46:00.539Z,20.39
2019-05-21T07:48:27.507Z,20.41
2019-05-21T07:50:54.318Z,20.42
2019-05-21T07:53:21.174Z,20.45
2019-05-21T07:55:48.004Z,20.53
2019-05-21T07:58:15.123Z,20.54
2019-05-21T08:00:41.964Z,20.51
2019-05-21T08:03:08.819Z,20.49
2019-05-21T08:05:35.719Z,20.48
2019-05-21T08:08:02.615Z,20.47
2019-05-21T08:10:29.479Z,20.48
2019-05-21T08:12:56.332Z,20.48
2019-05-21T08:15:23.221Z,20.48
2019-05-21T08:17:50.187Z,20.47
2019-05-21T08:20:17.196Z,20.48
2019-05-21T08:22:44.117Z,20.48
2019-05-21T08:25:14.488Z,20.49
2019-05-21T08:27:39.674Z,20.49
2019-05-21T08:30:06.581Z,20.49
2019-05-21T08:32:33.445Z,20.49
2019-05-21T08:35:00.271Z,20.49
2019-05-21T08:37:27.054Z,20.50
2019-05-21T08:39:53.880Z,20.50
2019-05-21T08:42:20.743Z,20.50
2019-05-21T08:44:47.550Z,20.49
2019-05-21T08:47:14.388Z,20.50
2019-05-21T08:49:44.177Z,20.50
2019-05-21T08:52:09.824Z,20.51
2019-05-21T08:54:50.459Z,20.51
2019-05-21T08:57:17.294Z,20.51
2019-05-21T08:59:44.086Z,20.52
2019-05-21T09:02:10.929Z,20.51
2019-05-21T09:04:46.403Z,20.52
2019-05-21T09:07:06.407Z,20.52
2019-05-21T09:09:49.373Z,20.52
2019-05-21T09:12:02.060Z,20.53
2019-05-21T09:14:28.908Z,20.53
2019-05-21T09:16:55.902Z,20.53
2019-05-21T09:19:22.884Z,20.54
2019-05-21T09:21:49.827Z,20.53
2019-05-21T09:24:16.651Z,20.53
2019-05-21T09:26:43.500Z,20.53
2019-05-21T09:29:11.323Z,20.53
2019-05-21T09:31:38.212Z,20.54
2019-05-21T09:34:05.033Z,20.53
2019-05-21T09:36:31.922Z,20.55
2019-05-21T09:38:58.797Z,20.54
2019-05-21T09:41:25.669Z,20.54
2019-05-21T09:43:52.500Z,20.54
2019-05-21T09:46:19.275Z,20.54
2019-05-21T09:48:46.141Z,20.54
2019-05-21T09:51:19.684Z,20.54
2019-05-21T09:53:41.594Z,20.54
2019-05-21T09:56:26.323Z,20.54
2019-05-21T09:58:54.586Z,20.55
2019-05-21T10:01:23.033Z,20.56
2019-05-21T10:03:51.547Z,20.55
2019-05-21T10:06:18.685Z,20.54
2019-05-21T10:08:45.596Z,20.54
2019-05-21T10:11:12.485Z,20.55
2019-05-21T10:13:39.357Z,20.54
2019-05-21T10:16:06.187Z,20.56
2019-05-21T10:18:33.050Z,20.56
2019-05-21T10:20:59.829Z,20.56
2019-05-21T10:23:26.660Z,20.56
2019-05-21T10:25:53.466Z,20.56
2019-05-21T10:28:20.312Z,20.56
2019-05-21T10:30:47.097Z,20.56
2019-05-21T10:33:13.943Z,20.56
2019-05-21T10:35:40.738Z,20.56
2019-05-21T10:38:07.554Z,20.55
2019-05-21T10:40:34.449Z,20.56
2019-05-21T10:43:01.351Z,20.55
2019-05-21T10:45:28.211Z,20.57
2019-05-21T10:47:55.072Z,20.57
2019-05-21T10:50:21.873Z,20.56
2019-05-21T10:52:48.690Z,20.56
2019-05-21T10:55:16.915Z,20.57
2019-05-21T10:57:44.044Z,20.56
2019-05-21T11:00:12.531Z,20.56
2019-05-21T11:02:57.387Z,20.58
2019-05-21T11:05:28.868Z,20.58
2019-05-21T11:07:54.404Z,20.57
2019-05-21T11:10:21.230Z,20.57
2019-05-21T11:12:48.134Z,20.57
2019-05-21T11:15:15.736Z,20.58
2019-05-21T11:17:58.889Z,20.57
2019-05-21T11:20:11.089Z,20.57
2019-05-21T11:22:37.950Z,20.57
2019-05-21T11:25:04.829Z,20.57
2019-05-21T11:27:31.725Z,20.57
2019-05-21T11:29:58.595Z,20.58
2019-05-21T11:32:25.495Z,20.58
2019-05-21T11:34:52.364Z,20.58
2019-05-21T11:37:19.236Z,20.58
2019-05-21T11:39:46.122Z,20.59
2019-05-21T11:42:13.106Z,20.58
2019-05-21T11:44:40.124Z,20.58
2019-05-21T11:47:06.921Z,20.57
2019-05-21T11:49:33.741Z,20.58
2019-05-21T11:52:00.887Z,20.58
2019-05-21T11:54:27.771Z,20.58
2019-05-21T11:56:54.582Z,20.58
2019-05-21T11:59:21.470Z,20.59
2019-05-21T12:01:48.306Z,20.58
2019-05-21T12:04:15.118Z,20.44
2019-05-21T12:06:41.938Z,20.59
2019-05-21T12:09:08.728Z,20.59
2019-05-21T12:11:35.528Z,20.59
2019-05-21T12:14:02.339Z,20.58
2019-05-21T12:16:29.116Z,20.59
2019-05-21T12:18:55.939Z,20.58
2019-05-21T12:21:22.715Z,20.58
2019-05-21T12:23:49.534Z,20.59
2019-05-21T12:26:16.347Z,18.61
2019-05-21T12:28:43.168Z,20.58
2019-05-21T12:31:09.982Z,20.58
2019-05-21T12:33:36.790Z,20.59
2019-05-21T12:36:03.602Z,20.59
2019-05-21T12:38:30.504Z,20.59
2019-05-21T12:40:57.407Z,20.60
2019-05-21T12:43:24.269Z,20.60
2019-05-21T12:45:51.258Z,20.60
2019-05-21T12:48:18.104Z,20.60
2019-05-21T12:50:45.061Z,20.61
2019-05-21T12:53:12.028Z,20.59
2019-05-21T12:55:39.092Z,20.60
2019-05-21T12:58:06.031Z,20.60
2019-05-21T13:00:33.029Z,20.60
2019-05-21T13:03:00.029Z,20.61
2019-05-21T13:05:27.052Z,20.60
2019-05-21T13:07:53.992Z,20.59
2019-05-21T13:10:20.879Z,20.60
2019-05-21T13:12:47.824Z,20.60
2019-05-21T13:15:14.748Z,20.60
2019-05-21T13:17:41.680Z,20.61
2019-05-21T13:20:08.921Z,20.61
2019-05-21T13:22:37.872Z,20.63
2019-05-21T13:25:04.630Z,20.61
2019-05-21T13:27:31.504Z,20.61
2019-05-21T13:29:58.510Z,20.62
2019-05-21T13:32:25.455Z,20.61
2019-05-21T13:34:52.517Z,20.62
2019-05-21T13:37:19.496Z,20.62
2019-05-21T13:39:50.063Z,20.60
2019-05-21T13:42:15.158Z,20.62
2019-05-21T13:44:42.047Z,20.61
2019-05-21T13:47:09.007Z,20.61
2019-05-21T13:49:35.867Z,20.62
2019-05-21T13:52:02.860Z,20.63
2019-05-21T13:54:29.768Z,20.63
2019-05-21T13:56:56.781Z,20.62
2019-05-21T13:59:23.686Z,20.64
2019-05-21T14:01:50.883Z,20.63
2019-05-21T14:04:17.816Z,20.63
2019-05-21T14:06:44.704Z,20.63
2019-05-21T14:09:11.544Z,20.68
2019-05-21T14:11:38.394Z,20.69
2019-05-21T14:14:05.221Z,20.70
2019-05-21T14:16:34.754Z,20.71
2019-05-21T14:19:00.671Z,20.69
2019-05-21T14:21:27.466Z,20.67
2019-05-21T14:23:54.331Z,20.67
2019-05-21T14:26:21.174Z,20.65
2019-05-21T14:28:48.084Z,20.65
2019-05-21T14:31:15.006Z,20.66
2019-05-21T14:33:41.811Z,20.65
2019-05-21T14:36:08.614Z,20.66
2019-05-21T14:38:35.459Z,20.65
2019-05-21T14:41:02.372Z,20.65
2019-05-21T14:43:29.238Z,20.66
2019-05-21T14:45:56.070Z,20.66
2019-05-21T14:48:22.894Z,20.66
2019-05-21T14:50:49.773Z,20.67
2019-05-21T14:53:16.616Z,20.66
2019-05-21T14:55:43.409Z,20.66
2019-05-21T14:58:10.300Z,20.66
2019-05-21T15:00:37.588Z,20.66
2019-05-21T15:03:04.486Z,20.67
2019-05-21T15:05:31.278Z,20.68
2019-05-21T15:07:58.124Z,20.69
2019-05-21T15:10:24.945Z,20.70
2019-05-21T15:12:51.768Z,20.69
2019-05-21T15:15:18.575Z,20.67
2019-05-21T15:17:45.412Z,20.66
2019-05-21T15:20:30.143Z,20.66
2019-05-21T15:22:57.066Z,19.68
2019-05-21T15:25:23.898Z,20.66
2019-05-21T15:27:50.728Z,20.67
2019-05-21T15:30:17.597Z,20.66
2019-05-21T15:32:44.430Z,20.66
2019-05-21T15:35:11.255Z,20.67
2019-05-21T15:37:38.127Z,20.66
2019-05-21T15:40:04.978Z,20.66
2019-05-21T15:42:31.809Z,20.66
2019-05-21T15:44:58.648Z,20.65
2019-05-21T15:47:25.463Z,20.64
2019-05-21T15:49:52.342Z,20.64
2019-05-21T15:52:19.179Z,20.64
2019-05-21T15:54:46.028Z,20.63
2019-05-21T15:57:12.865Z,20.64
2019-05-21T15:59:39.714Z,20.63
2019-05-21T16:02:06.553Z,20.63
2019-05-21T16:04:33.371Z,20.64
2019-05-21T16:07:00.207Z,20.63
2019-05-21T16:09:27.043Z,20.64
2019-05-21T16:11:53.876Z,20.64
2019-05-21T16:14:20.722Z,20.64
2019-05-21T16:16:47.611Z,20.64
2019-05-21T16:19:14.449Z,20.64
2019-05-21T16:21:41.286Z,20.64
2019-05-21T16:24:08.136Z,20.63
2019-05-21T16:26:34.981Z,20.64
2019-05-21T16:29:01.759Z,20.64
2019-05-21T16:31:28.590Z,20.64
2019-05-21T16:33:55.409Z,20.64
2019-05-21T16:36:22.313Z,20.65
2019-05-21T16:38:49.204Z,20.63
2019-05-21T16:41:16.117Z,20.63
2019-05-21T16:43:42.981Z,20.64
2019-05-21T16:46:10.486Z,20.64
2019-05-21T16:48:37.410Z,20.64
2019-05-21T16:51:04.264Z,20.65
2019-05-21T16:53:31.103Z,20.64
2019-05-21T16:55:57.935Z,20.64
2019-05-21T16:58:24.828Z,20.63
2019-05-21T17:00:51.647Z,20.63
2019-05-21T17:03:18.564Z,20.63
2019-05-21T17:05:45.476Z,20.64
2019-05-21T17:08:12.368Z,20.64
2019-05-21T17:10:39.198Z,20.64
2019-05-21T17:13:06.029Z,20.65
2019-05-21T17:15:32.850Z,20.64
2019-05-21T17:17:59.686Z,20.64
2019-05-21T17:20:26.535Z,20.64
2019-05-21T17:22:53.389Z,20.64
2019-05-21T17:25:20.254Z,20.63
2019-05-21T17:27:47.089Z,20.63
2019-05-21T17:30:13.979Z,20.63
2019-05-21T17:32:40.814Z,20.64
2019-05-21T17:35:07.689Z,20.63
2019-05-21T17:37:34.595Z,20.63
2019-05-21T17:40:01.493Z,20.63
2019-05-21T17:42:28.313Z,20.63
2019-05-21T17:44:55.207Z,20.63
2019-05-21T17:47:22.310Z,20.64
2019-05-21T17:49:49.149Z,20.63
2019-05-21T17:52:15.966Z,20.63
2019-05-21T17:54:55.564Z,20.62
2019-05-21T17:57:11.362Z,20.63
2019-05-21T17:59:38.208Z,20.63
2019-05-21T18:02:06.703Z,20.63
2019-05-21T18:04:34.196Z,20.63
2019-05-21T18:07:01.028Z,20.63
2019-05-21T18:09:28.026Z,20.63
2019-05-21T18:11:55.201Z,20.62
2019-05-21T18:14:22.126Z,20.61
2019-05-21T18:16:49.359Z,20.63
2019-05-21T18:19:16.337Z,20.63
2019-05-21T18:21:43.194Z,20.63
2019-05-21T18:24:10.338Z,20.61
2019-05-21T18:26:37.143Z,20.63
2019-05-21T18:29:04.005Z,20.67
2019-05-21T18:31:30.817Z,20.69
2019-05-21T18:33:57.589Z,20.70
2019-05-21T18:36:24.420Z,20.70
2019-05-21T18:38:51.299Z,20.74
2019-05-21T18:41:18.145Z,20.75
2019-05-21T18:43:45.008Z,20.74
2019-05-21T18:46:12.815Z,20.70
2019-05-21T18:48:39.620Z,20.66
2019-05-21T18:51:07.653Z,20.66
2019-05-21T18:53:34.777Z,20.67
2019-05-21T18:56:01.599Z,20.67
2019-05-21T18:58:28.480Z,20.66
2019-05-21T19:00:55.486Z,20.68
2019-05-21T19:03:25.885Z,20.67
2019-05-21T19:05:50.944Z,20.67
2019-05-21T19:08:17.735Z,20.67
2019-05-21T19:10:44.578Z,20.67
2019-05-21T19:13:11.402Z,20.67
2019-05-21T19:15:38.264Z,20.67
2019-05-21T19:18:05.103Z,20.67
2019-05-21T19:20:31.923Z,20.67
2019-05-21T19:22:58.776Z,20.67
2019-05-21T19:25:25.612Z,20.68
2019-05-21T19:27:52.478Z,20.68
2019-05-21T19:30:19.256Z,20.68
2019-05-21T19:32:46.079Z,20.68
2019-05-21T19:35:12.936Z,20.69
2019-05-21T19:37:40.036Z,20.69
2019-05-21T19:40:06.906Z,20.68
2019-05-21T19:42:33.717Z,20.68
2019-05-21T19:45:00.625Z,20.68
2019-05-21T19:47:27.513Z,20.68
2019-05-21T19:49:54.432Z,20.68
2019-05-21T19:52:21.225Z,20.68
2019-05-21T19:54:48.098Z,20.68
2019-05-21T19:57:14.967Z,20.68
2019-05-21T19:59:41.846Z,20.68
2019-05-21T20:02:10.470Z,20.68
2019-05-21T20:04:37.328Z,20.68
2019-05-21T20:07:05.850Z,20.69
2019-05-21T20:09:33.251Z,20.68
2019-05-21T20:12:00.150Z,20.68
2019-05-21T20:14:27.584Z,20.68
2019-05-21T20:16:54.904Z,20.69
2019-05-21T20:19:22.424Z,20.68
2019-05-21T20:21:49.674Z,20.68
2019-05-21T20:24:17.054Z,20.69
2019-05-21T20:26:43.862Z,20.69
2019-05-21T20:29:10.752Z,20.69
2019-05-21T20:31:39.210Z,20.68
2019-05-21T20:34:07.275Z,20.69
2019-05-21T20:36:34.124Z,20.69
2019-05-21T20:39:00.919Z,20.69
2019-05-21T20:41:29.102Z,20.69
2019-05-21T20:43:59.088Z,20.69
2019-05-21T20:46:24.402Z,20.69
2019-05-21T20:48:52.460Z,20.69
2019-05-21T20:51:19.967Z,20.68
2019-05-21T20:53:46.782Z,20.69
2019-05-21T20:56:13.905Z,20.69
2019-05-21T20:58:41.114Z,20.69
2019-05-21T21:01:08.612Z,20.70
2019-05-21T21:03:35.493Z,20.70
2019-05-21T21:06:03.301Z,20.68
2019-05-21T21:08:31.874Z,20.69
2019-05-21T21:10:59.788Z,20.69
2019-05-21T21:13:26.596Z,20.69
2019-05-21T21:15:53.459Z,20.69
2019-05-21T21:18:20.337Z,20.70
2019-05-21T21:20:47.187Z,20.70
2019-05-21T21:23:15.645Z,20.70
2019-05-21T21:25:42.653Z,20.70
2019-05-21T21:28:09.989Z,20.70
2019-05-21T21:30:37.386Z,20.69
2019-05-21T21:33:05.429Z,20.69
2019-05-21T21:35:32.642Z,20.69
2019-05-21T21:38:01.088Z,20.70
2019-05-21T21:40:28.235Z,20.71
2019-05-21T21:42:55.441Z,20.70
2019-05-21T21:45:22.332Z,20.70
2019-05-21T21:47:49.155Z,20.69
2019-05-21T21:50:15.937Z,20.69
2019-05-21T21:52:43.290Z,20.69
2019-05-21T21:55:10.201Z,20.70
2019-05-21T21:57:37.052Z,20.70
2019-05-21T22:00:03.964Z,20.69
2019-05-21T22:02:32.190Z,20.69
2019-05-21T22:04:59.749Z,20.70
2019-05-21T22:07:27.689Z,20.70
2019-05-21T22:09:54.533Z,20.69
2019-05-21T22:12:21.506Z,20.69
2019-05-21T22:14:52.077Z,20.70
2019-05-21T22:17:17.877Z,20.69
2019-05-21T22:19:45.147Z,20.69
2019-05-21T22:22:12.384Z,20.69
2019-05-21T22:24:39.210Z,20.69
2019-05-21T22:27:05.989Z,20.70
2019-05-21T22:29:32.889Z,20.69
2019-05-21T22:31:59.652Z,20.69
2019-05-21T22:34:26.497Z,20.69
2019-05-21T22:36:53.357Z,20.69
2019-05-21T22:39:21.782Z,20.69
2019-05-21T22:41:48.572Z,20.70
2019-05-21T22:44:15.393Z,20.70
2019-05-21T22:46:42.442Z,20.69
2019-05-21T22:49:09.257Z,20.68
2019-05-21T22:51:36.142Z,20.69
2019-05-21T22:54:02.990Z,20.69
2019-05-21T22:56:29.879Z,20.68
2019-05-21T22:58:56.745Z,20.70
2019-05-21T23:01:25.007Z,20.70
2019-05-21T23:03:51.904Z,20.69
2019-05-21T23:06:18.701Z,20.68
2019-05-21T23:08:45.591Z,20.69
2019-05-21T23:11:12.399Z,20.69
2019-05-21T23:13:39.218Z,20.69
2019-05-21T23:16:06.311Z,20.70
2019-05-21T23:18:33.280Z,20.69
2019-05-21T23:21:00.198Z,20.69
2019-05-21T23:23:28.258Z,20.69
2019-05-21T23:25:56.693Z,20.70
2019-05-21T23:28:24.562Z,20.69
2019-05-21T23:30:51.670Z,20.69
2019-05-21T23:33:20.213Z,20.69
2019-05-21T23:35:47.110Z,20.69
2019-05-21T23:38:14.267Z,20.68
2019-05-21T23:40:41.380Z,20.69
2019-05-21T23:43:08.410Z,20.69
2019-05-21T23:45:35.503Z,20.68
2019-05-21T23:48:02.995Z,20.70
2019-05-21T23:50:30.132Z,20.70
2019-05-21T23:53:17.077Z,20.69
2019-05-21T23:55:43.986Z,20.69
2019-05-21T23:58:10.765Z,20.69
